Terminal Aerodrome Forecast
Issued by NWS

Home | Current Version | Previous Version | Graphics & Text | Print | Product List | Glossary On
Versions: 1 2 3 4 5 6 7 8 9 10 11 12 13 14 15 16 17 18
000
FTUS43 KFGF 221100
TAFBJI
TAF
KBJI 221122Z 2212/2312 30014G20KT P6SM BKN008
     FM221500 32016G22KT P6SM SCT250
     FM221800 32016G22KT P6SM SCT050
     FM230200 32005KT P6SM SKC=

USA.gov is the U.S. government's official web portal to all federal, state and local government web resources and services.